Time;durP1;ratioP1;P1;durP2;ratioP2;P2;SDS_P1;SDS_P2;PMS_P1;PMS_P2;Temp;Humidity;BMP_temperature;BMP_pressure;BME280_temperature;BME280_humidity;BME280_pressure;Samples;Min_cycle;Max_cycle;Signal;HPM_P1;HPM_P2
2022/05/24 00:01:01;;;;;;;5.85;2.10;;;28.30;99.90;;;;;;4154141;28;20608;-67
2022/05/24 00:03:08;;;;;;;5.28;2.22;;;28.30;99.90;;;;;;4143727;28;20042;-68
2022/05/24 00:05:13;;;;;;;4.45;2.25;;;28.40;99.90;;;;;;4112924;28;20497;-68
2022/05/24 00:07:20;;;;;;;4.47;2.30;;;28.50;99.90;;;;;;4139031;28;20137;-67
2022/05/24 00:09:26;;;;;;;6.75;2.10;;;28.50;99.90;;;;;;4145210;28;20053;-68
2022/05/24 00:11:31;;;;;;;4.13;2.00;;;28.50;99.90;;;;;;4150775;28;20041;-67
2022/05/24 00:13:55;;;;;;;10.32;2.80;;;28.50;99.90;;;;;;4146617;28;20572;-68
2022/05/24 00:16:03;;;;;;;6.90;1.90;;;28.60;99.90;;;;;;4147643;28;20042;-65
2022/05/24 00:18:14;;;;;;;6.18;2.28;;;28.70;99.90;;;;;;4147659;28;20045;-64
2022/05/24 00:20:19;;;;;;;6.28;2.25;;;28.70;99.90;;;;;;4145103;28;20054;-65
2022/05/24 00:22:27;;;;;;;5.47;2.17;;;28.80;99.90;;;;;;4147685;28;20077;-63
2022/05/24 00:24:40;;;;;;;4.03;1.92;;;28.80;99.90;;;;;;4123495;28;20050;-64
2022/05/24 00:26:46;;;;;;;5.13;2.15;;;28.80;99.90;;;;;;4147629;28;20041;-64
2022/05/24 00:28:51;;;;;;;5.15;2.30;;;28.90;99.90;;;;;;4142505;28;20046;-64
2022/05/24 00:30:59;;;;;;;3.25;2.05;;;28.90;99.90;;;;;;4145406;28;20048;-64
2022/05/24 00:33:04;;;;;;;9.07;2.40;;;28.90;99.90;;;;;;4117057;28;20130;-65
2022/05/24 00:35:09;;;;;;;4.70;2.20;;;28.90;99.90;;;;;;4129094;28;20042;-64
2022/05/24 00:37:13;;;;;;;6.30;1.90;;;28.90;99.90;;;;;;4129565;28;20047;-64
2022/05/24 00:39:18;;;;;;;3.95;2.05;;;28.90;99.90;;;;;;4146422;28;20058;-65
2022/05/24 00:41:47;;;;;;;6.20;2.00;;;29.00;99.90;;;;;;4145240;28;20136;-66
2022/05/24 00:43:57;;;;;;;4.20;1.80;;;29.10;99.90;;;;;;4131423;28;20051;-66
2022/05/24 00:46:07;;;;;;;5.55;2.20;;;29.10;99.90;;;;;;4145713;28;20564;-66
2022/05/24 00:48:31;;;;;;;6.57;2.33;;;29.20;99.90;;;;;;4137688;28;20130;-66
2022/05/24 00:50:43;;;;;;;5.03;1.88;;;29.20;99.90;;;;;;4131681;28;20049;-66
2022/05/24 00:53:25;;;;;;;5.20;1.85;;;29.30;99.90;;;;;;4106395;28;20058;-66
2022/05/24 00:55:49;;;;;;;3.85;2.08;;;29.30;99.90;;;;;;4131127;28;20057;-67
2022/05/24 00:58:07;;;;;;;4.25;1.75;;;29.40;99.90;;;;;;4131153;28;20048;-66
2022/05/24 01:00:15;;;;;;;6.25;4.18;;;29.50;99.90;;;;;;4144644;28;20048;-67
2022/05/24 01:02:36;;;;;;;4.57;2.60;;;29.50;99.90;;;;;;4147372;28;20061;-66
2022/05/24 01:04:44;;;;;;;4.40;2.22;;;29.70;99.90;;;;;;4129076;28;20089;-66
2022/05/24 01:06:54;;;;;;;7.28;2.00;;;29.80;99.90;;;;;;4152420;28;20584;-67
2022/05/24 01:09:01;;;;;;;3.72;2.22;;;29.80;99.90;;;;;;4150496;28;20063;-66
2022/05/24 01:11:07;;;;;;;5.70;2.83;;;29.90;99.90;;;;;;4135290;28;20053;-67
2022/05/24 01:13:19;;;;;;;3.10;2.10;;;30.00;99.80;;;;;;4145955;28;20049;-66
2022/05/24 01:15:26;;;;;;;3.60;1.80;;;30.00;99.90;;;;;;4145662;28;20057;-66
2022/05/24 01:17:34;;;;;;;3.35;1.48;;;30.10;99.90;;;;;;4142871;28;20038;-66
2022/05/24 01:19:50;;;;;;;3.42;1.50;;;30.10;99.80;;;;;;4116242;28;20581;-66
2022/05/24 01:21:54;;;;;;;4.05;1.38;;;30.10;99.70;;;;;;4136385;28;20525;-68
2022/05/24 01:24:07;;;;;;;5.47;1.77;;;30.20;99.60;;;;;;4115632;28;20490;-67
2022/05/24 01:26:19;;;;;;;4.85;1.45;;;30.30;99.60;;;;;;4115605;28;20510;-66
2022/05/24 01:28:39;;;;;;;6.78;2.65;;;30.30;99.30;;;;;;4125937;28;20050;-66
2022/05/24 01:30:44;;;;;;;4.10;2.00;;;30.30;99.00;;;;;;4126193;28;20042;-66
2022/05/24 01:37:32;;;;;;;6.70;2.38;;;30.50;98.50;;;;;;4096733;28;20074;-66
2022/05/24 01:39:38;;;;;;;4.68;1.80;;;30.50;98.20;;;;;;4119960;28;20057;-66
2022/05/24 01:41:51;;;;;;;5.07;2.25;;;30.50;98.50;;;;;;4124448;28;20085;-66
2022/05/24 01:43:56;;;;;;;3.75;1.80;;;30.50;98.80;;;;;;4125542;28;20091;-66
2022/05/24 01:46:07;;;;;;;3.80;1.63;;;30.60;98.80;;;;;;4127672;28;20050;-66
2022/05/24 01:48:14;;;;;;;4.18;1.60;;;30.70;98.80;;;;;;4129937;28;20185;-66
2022/05/24 01:50:20;;;;;;;6.30;2.55;;;30.80;98.70;;;;;;4116650;28;20047;-66
2022/05/24 01:52:26;;;;;;;3.53;1.75;;;30.80;98.60;;;;;;4106161;28;20049;-66
2022/05/24 01:54:33;;;;;;;3.92;1.90;;;30.90;98.50;;;;;;4143503;28;20096;-67
2022/05/24 01:56:40;;;;;;;4.22;1.65;;;30.90;98.50;;;;;;4160042;28;20111;-67
2022/05/24 01:58:49;;;;;;;3.13;1.45;;;30.90;98.80;;;;;;4176469;28;20044;-67
2022/05/24 02:01:06;;;;;;;5.20;2.00;;;31.00;98.00;;;;;;4168824;28;20591;-67
2022/05/24 02:03:15;;;;;;;4.10;1.90;;;31.00;98.30;;;;;;4170861;28;20040;-66
2022/05/24 02:05:31;;;;;;;3.67;1.60;;;31.10;98.10;;;;;;4159899;28;20476;-66
2022/05/24 02:07:36;;;;;;;5.13;2.13;;;31.10;97.70;;;;;;4157185;28;20046;-66
2022/05/24 02:09:51;;;;;;;3.50;1.63;;;31.10;97.50;;;;;;4160007;28;20787;-66
2022/05/24 02:12:01;;;;;;;4.55;1.75;;;31.10;97.60;;;;;;4140452;28;20042;-66
2022/05/24 02:14:15;;;;;;;11.07;6.35;;;31.10;97.60;;;;;;4138166;28;20129;-66
2022/05/24 02:16:22;;;;;;;7.90;4.55;;;31.10;97.50;;;;;;4149457;28;20049;-66
2022/05/24 02:18:28;;;;;;;4.47;2.38;;;31.10;97.50;;;;;;4144592;28;20070;-67
2022/05/24 02:20:38;;;;;;;4.63;2.50;;;31.10;97.40;;;;;;4110625;28;20046;-66
2022/05/24 02:22:43;;;;;;;5.00;2.08;;;31.10;97.40;;;;;;4123946;28;20054;-67
2022/05/24 02:25:03;;;;;;;3.70;1.63;;;31.10;97.20;;;;;;4143448;28;20057;-67
2022/05/24 02:27:09;;;;;;;4.97;1.70;;;31.20;96.80;;;;;;4144366;28;20076;-66
2022/05/24 02:29:16;;;;;;;4.30;1.83;;;31.30;96.70;;;;;;4160817;28;20496;-66
2022/05/24 02:31:22;;;;;;;6.28;1.70;;;31.30;96.70;;;;;;4103624;28;20101;-67
2022/05/24 02:33:28;;;;;;;3.97;1.50;;;31.40;96.40;;;;;;4144702;28;20046;-67
2022/05/24 02:35:36;;;;;;;7.10;2.08;;;31.50;96.90;;;;;;4131734;28;20053;-67
2022/05/24 02:37:41;;;;;;;5.03;1.70;;;31.60;96.60;;;;;;4129659;28;20070;-67
2022/05/24 02:42:03;;;;;;;5.25;1.83;;;31.60;96.20;;;;;;4145811;28;20042;-67
2022/05/24 02:44:15;;;;;;;4.10;1.88;;;31.60;96.60;;;;;;4145484;28;20046;-68
2022/05/24 02:46:20;;;;;;;4.82;2.17;;;31.60;96.70;;;;;;4146179;28;20050;-68
2022/05/24 02:48:24;;;;;;;5.97;2.50;;;31.70;96.80;;;;;;4129865;28;20052;-67
2022/05/24 02:50:30;;;;;;;6.43;1.90;;;31.80;96.70;;;;;;4145414;28;20069;-68
2022/05/24 02:52:37;;;;;;;3.55;1.55;;;31.80;96.00;;;;;;4144865;28;20112;-69
2022/05/24 02:54:42;;;;;;;3.42;1.90;;;31.80;96.20;;;;;;4145451;28;20509;-69
2022/05/24 02:56:47;;;;;;;5.45;2.10;;;31.80;96.20;;;;;;4146646;28;20119;-68
2022/05/24 02:58:52;;;;;;;11.50;6.03;;;31.80;96.10;;;;;;4129111;28;20104;-68
2022/05/24 03:00:58;;;;;;;13.73;7.88;;;31.80;96.40;;;;;;4161080;28;20073;-68
2022/05/24 03:03:02;;;;;;;13.38;7.55;;;32.00;96.40;;;;;;4113007;28;20412;-67
2022/05/24 03:05:10;;;;;;;8.32;5.00;;;32.00;96.30;;;;;;4145113;28;20061;-68
2022/05/24 03:09:35;;;;;;;6.13;3.28;;;32.00;96.40;;;;;;4144210;28;20050;-67
2022/05/24 03:16:21;;;;;;;5.75;1.95;;;32.20;95.70;;;;;;4141769;28;20041;-68
2022/05/24 03:18:27;;;;;;;4.57;2.60;;;32.30;95.70;;;;;;4144223;28;20487;-67
2022/05/24 03:20:46;;;;;;;4.85;1.88;;;32.30;95.20;;;;;;4144244;28;20037;-67
2022/05/24 03:22:51;;;;;;;2.92;1.65;;;32.30;94.40;;;;;;4132567;28;20058;-70
2022/05/24 03:25:03;;;;;;;3.95;1.73;;;32.30;94.70;;;;;;4145863;28;20050;-67
2022/05/24 03:27:11;;;;;;;8.32;2.78;;;32.40;94.60;;;;;;4144849;28;20038;-67
2022/05/24 03:29:16;;;;;;;3.15;1.70;;;32.50;94.50;;;;;;4126791;28;20050;-67
2022/05/24 03:31:22;;;;;;;3.30;1.70;;;32.70;94.10;;;;;;4145194;28;20563;-67
2022/05/24 03:33:31;;;;;;;3.00;1.70;;;32.80;94.10;;;;;;4127300;28;20046;-68
2022/05/24 03:35:38;;;;;;;2.88;1.40;;;32.70;93.70;;;;;;4129101;28;20053;-67
2022/05/24 03:37:43;;;;;;;5.18;1.63;;;32.80;93.70;;;;;;4137679;28;20101;-67
2022/05/24 03:39:47;;;;;;;7.10;2.95;;;32.80;93.90;;;;;;4131750;28;20478;-67
2022/05/24 03:41:56;;;;;;;7.55;4.07;;;32.80;94.10;;;;;;4147437;28;20038;-67
2022/05/24 03:44:11;;;;;;;5.32;3.30;;;32.90;93.70;;;;;;4131572;28;20074;-68
2022/05/24 03:46:18;;;;;;;4.30;2.55;;;33.00;93.60;;;;;;4147218;28;20041;-68
2022/05/24 03:48:23;;;;;;;5.97;3.20;;;33.10;93.60;;;;;;4143191;28;20120;-68
2022/05/24 03:50:30;;;;;;;6.88;3.20;;;33.20;93.70;;;;;;4147793;28;20145;-67
2022/05/24 03:52:35;;;;;;;6.53;3.10;;;33.20;93.90;;;;;;4147351;28;20137;-67
2022/05/24 03:54:39;;;;;;;3.45;2.35;;;33.30;93.90;;;;;;4149037;28;20496;-68
2022/05/24 03:59:06;;;;;;;3.05;1.80;;;33.30;94.00;;;;;;4146419;28;20058;-67
2022/05/24 04:01:18;;;;;;;4.15;1.75;;;33.30;93.80;;;;;;4113662;28;20059;-67
2022/05/24 04:03:43;;;;;;;4.95;2.05;;;33.30;93.70;;;;;;4145952;28;20124;-68
2022/05/24 04:05:49;;;;;;;4.47;1.80;;;33.30;93.90;;;;;;4147567;28;20060;-67
2022/05/24 04:08:00;;;;;;;4.65;2.17;;;33.30;93.20;;;;;;4162301;28;20111;-67
2022/05/24 04:10:09;;;;;;;6.32;2.78;;;33.30;93.20;;;;;;4146511;28;20045;-67
2022/05/24 04:12:15;;;;;;;5.55;2.65;;;33.40;93.70;;;;;;4144433;28;20051;-68
2022/05/24 04:14:21;;;;;;;4.72;2.63;;;33.40;93.10;;;;;;4144988;28;20058;-68
2022/05/24 04:16:26;;;;;;;6.55;2.85;;;33.50;93.80;;;;;;4146884;28;20637;-67
2022/05/24 04:18:42;;;;;;;6.07;2.00;;;33.50;93.10;;;;;;4148625;28;20046;-67
2022/05/24 04:20:49;;;;;;;10.48;3.33;;;33.50;93.30;;;;;;4146290;28;20044;-67
2022/05/24 04:22:55;;;;;;;7.47;2.40;;;33.40;93.40;;;;;;4147743;28;20081;-68
2022/05/24 04:25:01;;;;;;;5.18;2.30;;;33.30;93.60;;;;;;4146586;28;20440;-67
2022/05/24 04:27:10;;;;;;;8.55;2.78;;;33.30;93.90;;;;;;4148336;28;20520;-67
2022/05/24 04:29:17;;;;;;;3.42;2.17;;;33.20;94.20;;;;;;4147252;28;20042;-67
2022/05/24 04:31:22;;;;;;;4.20;2.47;;;33.10;94.40;;;;;;4145416;28;20081;-67
2022/05/24 04:33:27;;;;;;;7.50;2.42;;;33.00;94.60;;;;;;4147372;28;20052;-67
2022/05/24 04:35:43;;;;;;;5.90;2.83;;;33.00;94.30;;;;;;4131883;28;20097;-67
2022/05/24 04:37:59;;;;;;;6.32;2.33;;;33.00;94.10;;;;;;4117198;28;20050;-67
2022/05/24 04:40:07;;;;;;;3.80;1.98;;;33.00;94.40;;;;;;4149717;28;20785;-67
2022/05/24 04:44:29;;;;;;;7.80;2.80;;;33.30;94.50;;;;;;4138838;28;20129;-67
2022/05/24 04:49:22;;;;;;;5.90;2.33;;;33.70;93.80;;;;;;4133655;28;20051;-66
2022/05/24 04:51:28;;;;;;;5.68;3.35;;;33.70;93.70;;;;;;4141763;28;20045;-67
2022/05/24 04:53:39;;;;;;;7.70;3.20;;;33.80;93.40;;;;;;4131103;28;20060;-66
2022/05/24 04:55:47;;;;;;;5.55;2.10;;;33.90;93.50;;;;;;4146548;28;20110;-67
2022/05/24 04:57:56;;;;;;;6.97;2.88;;;34.00;93.40;;;;;;4146356;28;20477;-66
2022/05/24 05:00:04;;;;;;;7.88;4.20;;;34.10;93.70;;;;;;4162790;28;20073;-67
2022/05/24 05:02:09;;;;;;;10.25;6.57;;;34.30;94.20;;;;;;4145626;28;20421;-69
2022/05/24 05:04:15;;;;;;;5.95;3.60;;;34.30;93.00;;;;;;4146030;28;20050;-67
2022/05/24 05:06:32;;;;;;;4.82;2.55;;;34.40;93.00;;;;;;4145051;28;20507;-66
2022/05/24 05:08:37;;;;;;;11.25;2.60;;;34.50;92.80;;;;;;4147469;28;20416;-68
2022/05/24 05:10:44;;;;;;;7.40;2.10;;;34.60;93.50;;;;;;4146038;28;20049;-67
2022/05/24 05:12:50;;;;;;;5.22;1.85;;;34.70;92.90;;;;;;4130011;28;20061;-66
2022/05/24 05:14:57;;;;;;;6.03;2.10;;;34.60;92.50;;;;;;4145898;28;20050;-67
2022/05/24 05:17:04;;;;;;;5.50;2.08;;;34.60;92.50;;;;;;4145556;28;20104;-67
2022/05/24 05:19:12;;;;;;;3.63;1.80;;;34.60;92.40;;;;;;4146554;28;20500;-66
2022/05/24 05:21:17;;;;;;;5.07;1.85;;;34.60;92.50;;;;;;4145970;28;20050;-66
2022/05/24 05:23:21;;;;;;;5.85;2.17;;;34.70;92.40;;;;;;4113160;28;20078;-67
2022/05/24 05:25:26;;;;;;;5.07;2.10;;;34.80;92.10;;;;;;4146412;28;20520;-66
2022/05/24 05:27:30;;;;;;;4.95;2.05;;;34.80;92.00;;;;;;4146857;28;20540;-66
2022/05/24 05:32:20;;;;;;;6.50;2.28;;;34.40;92.80;;;;;;4132724;28;20057;-66
2022/05/24 05:34:29;;;;;;;6.75;2.47;;;34.10;92.50;;;;;;4143820;28;20058;-66
2022/05/24 05:36:34;;;;;;;7.13;2.53;;;34.00;92.50;;;;;;4128714;28;20050;-66
2022/05/24 05:38:47;;;;;;;7.53;2.42;;;34.20;92.50;;;;;;4159777;28;20069;-67
2022/05/24 05:40:52;;;;;;;8.35;2.75;;;34.30;92.80;;;;;;4134128;28;20065;-66
2022/05/24 05:42:59;;;;;;;7.30;2.30;;;34.30;93.10;;;;;;4143236;28;20045;-67
2022/05/24 05:45:10;;;;;;;6.20;2.45;;;34.40;93.00;;;;;;4144652;28;20048;-67
2022/05/24 05:47:16;;;;;;;5.35;2.35;;;34.50;92.90;;;;;;4141855;28;20042;-67
2022/05/24 05:49:21;;;;;;;6.97;2.80;;;34.50;92.70;;;;;;4125550;28;20058;-67
2022/05/24 05:51:26;;;;;;;7.00;2.50;;;34.30;92.80;;;;;;4111080;28;20163;-67
2022/05/24 05:53:35;;;;;;;7.03;2.67;;;34.20;93.00;;;;;;4143645;28;20049;-67
2022/05/24 05:55:41;;;;;;;6.25;2.28;;;34.30;93.10;;;;;;4141940;28;20176;-68
2022/05/24 05:57:59;;;;;;;6.22;2.70;;;34.50;92.60;;;;;;4142692;28;20100;-68
2022/05/24 06:00:08;;;;;;;7.97;2.70;;;34.40;92.40;;;;;;4133299;28;20400;-68
2022/05/24 06:02:38;;;;;;;6.82;2.63;;;34.40;92.40;;;;;;4118669;28;20052;-67
2022/05/24 06:04:46;;;;;;;7.75;2.72;;;34.40;92.70;;;;;;4126097;28;20091;-67
2022/05/24 06:06:52;;;;;;;9.05;3.10;;;34.30;92.60;;;;;;4142468;28;20045;-68
2022/05/24 06:08:58;;;;;;;6.88;2.85;;;34.30;92.70;;;;;;4128920;28;20045;-68
2022/05/24 06:11:03;;;;;;;10.07;3.20;;;34.30;92.60;;;;;;4127156;28;20046;-67
2022/05/24 06:13:07;;;;;;;9.77;2.88;;;34.40;92.80;;;;;;4128711;28;20481;-67
2022/05/24 06:15:19;;;;;;;9.50;2.70;;;34.50;92.50;;;;;;4123891;28;20058;-70
2022/05/24 06:17:24;;;;;;;10.05;2.97;;;34.40;92.10;;;;;;4141604;28;20137;-69
2022/05/24 06:19:29;;;;;;;6.50;2.75;;;34.40;92.30;;;;;;4143311;28;20132;-68
2022/05/24 06:21:48;;;;;;;6.75;2.55;;;34.40;92.10;;;;;;4141592;28;20049;-69
2022/05/24 06:23:53;;;;;;;5.40;2.20;;;34.40;91.50;;;;;;4145348;28;20088;-69
2022/05/24 06:25:58;;;;;;;6.38;2.65;;;34.30;91.80;;;;;;4143009;28;20050;-68
2022/05/24 06:28:06;;;;;;;5.25;2.42;;;34.20;92.00;;;;;;4144688;28;20073;-68
2022/05/24 06:30:11;;;;;;;8.52;2.90;;;34.20;91.70;;;;;;4144861;28;20041;-69
2022/05/24 06:32:16;;;;;;;8.35;2.85;;;34.20;91.70;;;;;;4143117;28;20042;-67
2022/05/24 06:34:21;;;;;;;6.68;2.70;;;34.20;92.10;;;;;;4141912;28;20156;-67
2022/05/24 06:36:46;;;;;;;5.97;2.85;;;34.20;92.40;;;;;;4141650;28;20129;-67
2022/05/24 06:38:51;;;;;;;6.78;2.85;;;34.20;92.40;;;;;;4142894;28;20137;-67
2022/05/24 06:41:02;;;;;;;6.35;2.83;;;34.20;92.30;;;;;;4142862;28;20127;-67
2022/05/24 06:43:07;;;;;;;6.43;3.15;;;34.30;92.10;;;;;;4142970;28;20108;-67
2022/05/24 06:45:13;;;;;;;5.25;3.00;;;34.40;92.10;;;;;;4163458;28;20052;-67
2022/05/24 06:47:17;;;;;;;6.38;3.30;;;34.60;91.60;;;;;;4155192;28;20108;-67
2022/05/24 06:49:24;;;;;;;9.25;3.60;;;34.70;91.20;;;;;;4143335;28;20100;-67
2022/05/24 06:51:33;;;;;;;6.13;2.90;;;34.80;91.80;;;;;;4144018;28;20069;-67
2022/05/24 06:53:39;;;;;;;9.20;3.00;;;34.80;92.10;;;;;;4143507;28;20183;-67
2022/05/24 06:55:44;;;;;;;6.80;3.60;;;34.70;91.80;;;;;;4141787;28;20042;-67
2022/05/24 06:57:49;;;;;;;9.60;3.38;;;34.80;92.10;;;;;;4108124;28;20054;-67
2022/05/24 07:04:38;;;;;;;9.43;3.60;;;34.90;92.20;;;;;;4143418;28;20063;-68
2022/05/24 07:06:44;;;;;;;4.78;2.83;;;34.80;92.00;;;;;;4139572;28;20046;-68
2022/05/24 07:08:51;;;;;;;7.57;3.60;;;34.80;91.70;;;;;;4126765;28;20078;-67
2022/05/24 07:10:55;;;;;;;8.98;3.95;;;34.80;91.70;;;;;;4125043;28;20597;-69
2022/05/24 07:13:17;;;;;;;9.02;3.65;;;35.00;91.90;;;;;;4144529;28;20122;-69
2022/05/24 07:15:25;;;;;;;7.35;2.88;;;35.00;91.60;;;;;;4125892;28;20046;-68
2022/05/24 07:17:31;;;;;;;8.48;3.53;;;35.10;91.60;;;;;;4156798;28;20077;-68
2022/05/24 07:19:38;;;;;;;9.32;3.28;;;35.20;91.70;;;;;;4145693;28;20096;-67
2022/05/24 07:21:44;;;;;;;10.45;3.28;;;35.10;91.30;;;;;;4147401;28;20038;-68
2022/05/24 07:23:51;;;;;;;6.07;2.80;;;35.10;91.80;;;;;;4130899;28;20070;-68
2022/05/24 07:25:57;;;;;;;7.60;3.13;;;35.10;91.70;;;;;;4131832;28;20123;-67
2022/05/24 07:28:03;;;;;;;8.45;3.13;;;35.10;91.30;;;;;;4146159;28;20042;-67
2022/05/24 07:30:09;;;;;;;8.43;3.13;;;35.20;91.50;;;;;;4147611;28;20038;-67
2022/05/24 07:32:16;;;;;;;10.57;3.75;;;35.30;91.40;;;;;;4147635;28;20046;-67
2022/05/24 07:34:21;;;;;;;10.15;4.15;;;35.40;91.40;;;;;;4148504;28;20045;-67
2022/05/24 07:36:26;;;;;;;14.50;5.40;;;35.40;90.70;;;;;;4120788;28;20062;-68
2022/05/24 07:38:30;;;;;;;11.77;4.00;;;35.40;90.30;;;;;;4145865;28;20073;-68
2022/05/24 07:47:29;;;;;;;17.13;7.20;;;35.30;90.60;;;;;;4147029;28;20403;-67
2022/05/24 07:49:34;;;;;;;12.38;5.05;;;35.40;90.80;;;;;;4145868;28;20049;-68
2022/05/24 07:51:38;;;;;;;12.57;4.60;;;35.30;90.80;;;;;;4138048;28;20061;-68
2022/05/24 07:53:46;;;;;;;9.15;3.58;;;35.30;90.70;;;;;;4169865;28;20045;-68
2022/05/24 07:55:51;;;;;;;17.45;4.53;;;35.30;90.90;;;;;;4161386;28;20049;-69
2022/05/24 07:57:59;;;;;;;11.27;5.03;;;35.20;90.60;;;;;;4146729;28;20550;-67
2022/05/24 08:00:05;;;;;;;12.80;4.28;;;35.10;90.00;;;;;;4146795;28;20038;-68
2022/05/24 08:02:21;;;;;;;10.30;4.90;;;35.10;89.40;;;;;;4146909;28;20781;-68
2022/05/24 08:04:27;;;;;;;12.90;5.43;;;35.00;90.10;;;;;;4114250;28;20031;-66
2022/05/24 08:06:36;;;;;;;20.33;10.70;;;35.00;90.30;;;;;;4143957;28;20050;-66
2022/05/24 08:08:41;;;;;;;20.13;12.57;;;35.10;90.10;;;;;;4142418;28;20038;-67
2022/05/24 08:10:47;;;;;;;16.80;9.48;;;35.00;90.00;;;;;;4145396;28;20038;-66
2022/05/24 08:12:51;;;;;;;14.32;5.72;;;35.10;89.90;;;;;;4161424;28;20483;-67
2022/05/24 08:14:56;;;;;;;13.90;6.68;;;35.10;88.20;;;;;;4146612;28;20093;-67
2022/05/24 08:17:01;;;;;;;14.80;8.00;;;35.10;89.20;;;;;;4161050;28;20041;-67
2022/05/24 08:19:12;;;;;;;13.07;5.47;;;35.20;90.00;;;;;;4145020;28;20062;-67
2022/05/24 08:21:19;;;;;;;12.05;3.95;;;35.20;89.20;;;;;;4146278;28;20042;-66
2022/05/24 08:23:24;;;;;;;12.63;4.10;;;35.10;90.00;;;;;;4145219;28;20579;-67
2022/05/24 08:25:30;;;;;;;10.48;5.32;;;35.10;90.20;;;;;;4135406;28;20038;-66
2022/05/24 08:27:37;;;;;;;11.98;5.10;;;35.10;90.70;;;;;;4129415;28;20093;-66
2022/05/24 08:29:42;;;;;;;10.77;5.78;;;35.10;90.20;;;;;;4146347;28;20104;-66
2022/05/24 08:31:47;;;;;;;17.95;7.32;;;35.20;90.30;;;;;;4146431;28;20038;-66
2022/05/24 08:33:52;;;;;;;15.77;7.63;;;35.20;90.30;;;;;;4147296;28;20045;-66
2022/05/24 08:35:56;;;;;;;9.70;4.00;;;35.20;89.80;;;;;;4146861;28;20054;-66
2022/05/24 08:38:02;;;;;;;8.98;3.13;;;35.30;88.50;;;;;;4146499;28;20201;-66
2022/05/24 08:40:08;;;;;;;7.22;2.85;;;35.30;87.60;;;;;;4146474;28;20046;-66
2022/05/24 08:42:35;;;;;;;8.00;2.67;;;35.20;87.20;;;;;;4162316;28;20084;-66
2022/05/24 08:49:32;;;;;;;11.82;4.75;;;35.30;89.00;;;;;;4147276;28;20050;-66
2022/05/24 08:51:38;;;;;;;8.85;3.92;;;35.40;89.00;;;;;;4145771;28;20042;-66
2022/05/24 08:53:47;;;;;;;9.98;4.53;;;35.40;88.80;;;;;;4146217;28;20050;-66
2022/05/24 08:55:58;;;;;;;13.57;4.07;;;35.30;88.00;;;;;;4162562;28;20132;-67
2022/05/24 08:58:05;;;;;;;8.85;4.22;;;35.30;88.20;;;;;;4162716;28;20041;-67
2022/05/24 09:00:13;;;;;;;11.10;4.53;;;35.40;88.30;;;;;;4144618;28;20480;-67
2022/05/24 09:02:17;;;;;;;7.28;4.03;;;35.40;88.30;;;;;;4162441;28;20053;-67
2022/05/24 09:04:22;;;;;;;8.20;3.28;;;35.40;87.50;;;;;;4129349;28;20050;-66
2022/05/24 09:06:34;;;;;;;7.50;3.20;;;35.40;87.10;;;;;;4112976;28;20051;-66
2022/05/24 09:09:11;;;;;;;7.18;2.83;;;35.40;87.40;;;;;;4143306;28;20104;-66
2022/05/24 09:11:22;;;;;;;8.98;4.00;;;35.30;88.10;;;;;;4142660;28;20053;-66
2022/05/24 09:13:36;;;;;;;8.55;4.10;;;35.20;87.80;;;;;;4144672;28;20389;-66
2022/05/24 09:15:53;;;;;;;9.55;3.88;;;35.20;87.60;;;;;;4129489;28;20108;-67
2022/05/24 09:18:12;;;;;;;10.48;5.13;;;35.10;87.60;;;;;;4142892;28;20037;-66
2022/05/24 09:20:31;;;;;;;8.02;3.85;;;35.20;87.70;;;;;;4129089;28;20053;-66
2022/05/24 09:22:46;;;;;;;10.88;4.32;;;35.20;87.40;;;;;;4129529;28;20397;-67
2022/05/24 09:24:57;;;;;;;10.23;4.30;;;35.20;87.90;;;;;;4128629;28;20133;-67
2022/05/24 09:27:08;;;;;;;11.13;4.57;;;35.20;88.20;;;;;;4113646;28;20817;-67
2022/05/24 09:29:14;;;;;;;14.68;5.05;;;35.20;86.90;;;;;;4129216;28;20476;-67
2022/05/24 09:31:37;;;;;;;14.40;5.95;;;35.20;87.40;;;;;;4128935;28;20389;-67
2022/05/24 09:33:41;;;;;;;;;;;35.10;87.20;;;;;;4128593;28;20050;-68
2022/05/24 09:35:48;;;;;;;14.10;5.03;;;35.10;87.10;;;;;;4138739;28;19929;-67
2022/05/24 09:38:14;;;;;;;10.45;4.78;;;35.10;87.00;;;;;;4146062;28;20064;-67
2022/05/24 09:40:23;;;;;;;12.48;3.95;;;35.10;86.70;;;;;;4154120;28;20049;-66
2022/05/24 09:42:36;;;;;;;11.80;3.95;;;35.10;87.50;;;;;;4128476;28;20089;-68
2022/05/24 09:44:56;;;;;;;10.80;4.43;;;35.10;86.60;;;;;;4145150;28;20116;-66
2022/05/24 09:47:03;;;;;;;12.13;3.97;;;35.10;87.10;;;;;;4144929;28;20069;-67
2022/05/24 09:49:21;;;;;;;9.50;3.60;;;35.10;87.10;;;;;;4143775;28;20049;-66
2022/05/24 09:51:39;;;;;;;6.80;3.80;;;35.00;86.50;;;;;;4143531;28;20045;-66
2022/05/24 09:53:51;;;;;;;8.75;3.13;;;35.00;87.00;;;;;;4144060;28;20053;-68
2022/05/24 09:56:04;;;;;;;10.77;5.28;;;35.00;87.00;;;;;;4146467;28;20042;-66
2022/05/24 09:58:28;;;;;;;;;;;35.00;87.20;;;;;;4145892;28;20469;-65
2022/05/24 10:00:39;;;;;;;9.88;4.20;;;35.00;87.30;;;;;;4129449;28;19926;-66
2022/05/24 10:02:45;;;;;;;8.40;3.45;;;35.00;87.80;;;;;;4159667;28;20045;-67
2022/05/24 10:04:49;;;;;;;10.65;5.55;;;35.00;88.00;;;;;;4158329;28;20056;-66
2022/05/24 10:07:02;;;;;;;12.23;5.47;;;34.90;88.50;;;;;;4144354;28;20046;-67
2022/05/24 10:09:29;;;;;;;11.80;4.60;;;34.80;88.70;;;;;;4126891;28;20371;-66
2022/05/24 10:12:06;;;;;;;10.48;4.43;;;34.70;88.80;;;;;;4141741;28;20046;-66
2022/05/24 10:14:35;;;;;;;9.30;3.63;;;34.70;89.40;;;;;;4151118;28;20062;-66
2022/05/24 10:16:44;;;;;;;7.15;3.50;;;34.70;89.20;;;;;;4150312;28;20479;-66
2022/05/24 10:19:21;;;;;;;6.90;3.17;;;34.60;89.30;;;;;;4135679;28;20064;-67
2022/05/24 10:21:31;;;;;;;9.82;3.15;;;34.60;90.00;;;;;;4131269;28;20062;-66
2022/05/24 10:24:02;;;;;;;8.95;3.72;;;34.60;90.30;;;;;;4129264;28;20068;-66
2022/05/24 10:26:25;;;;;;;9.55;3.30;;;34.50;90.00;;;;;;4144144;28;20050;-66
2022/05/24 10:28:45;;;;;;;9.73;3.22;;;34.40;90.00;;;;;;4127483;28;20139;-68
2022/05/24 10:31:08;;;;;;;5.97;3.40;;;34.40;90.10;;;;;;4157526;28;20054;-66
2022/05/24 10:40:34;;;;;;;10.02;3.70;;;34.10;90.30;;;;;;4159348;28;20060;-66
2022/05/24 10:42:53;;;;;;;9.20;3.70;;;34.10;90.50;;;;;;4160424;28;20049;-67
2022/05/24 10:45:03;;;;;;;8.88;3.97;;;34.10;90.40;;;;;;4145788;28;20377;-66
2022/05/24 10:47:25;;;;;;;7.38;3.13;;;34.00;90.50;;;;;;4147353;28;20100;-67
2022/05/24 10:49:44;;;;;;;8.40;3.42;;;33.90;90.60;;;;;;4144112;28;20042;-66
2022/05/24 10:52:00;;;;;;;7.53;3.80;;;33.90;90.70;;;;;;4143418;28;20038;-67
2022/05/24 10:54:20;;;;;;;7.82;4.15;;;33.80;91.00;;;;;;4143076;28;20050;-66
2022/05/24 10:56:44;;;;;;;10.13;4.00;;;33.80;91.10;;;;;;4144717;28;20038;-67
2022/05/24 10:58:49;;;;;;;10.18;3.85;;;33.60;91.70;;;;;;4159892;28;20167;-66
2022/05/24 11:01:16;;;;;;;8.57;4.50;;;33.50;92.10;;;;;;4145683;28;20136;-66
2022/05/24 11:03:32;;;;;;;11.20;4.20;;;33.50;92.20;;;;;;4158021;28;20046;-66
2022/05/24 11:05:45;;;;;;;11.85;4.40;;;33.50;92.20;;;;;;4142280;28;20070;-66
2022/05/24 11:07:57;;;;;;;11.68;4.57;;;33.40;92.10;;;;;;4144718;28;20046;-67
2022/05/24 11:10:10;;;;;;;15.37;5.63;;;33.40;92.00;;;;;;4128970;28;20046;-65
2022/05/24 11:12:28;;;;;;;11.95;5.70;;;33.30;92.20;;;;;;4145040;28;20441;-67
2022/05/24 11:14:46;;;;;;;11.30;5.10;;;33.10;92.30;;;;;;4144042;28;20050;-66
2022/05/24 11:16:52;;;;;;;11.55;5.25;;;33.20;92.20;;;;;;4160119;28;20064;-66
2022/05/24 11:18:57;;;;;;;9.95;4.80;;;33.10;92.10;;;;;;4143412;28;20053;-67
2022/05/24 11:21:18;;;;;;;9.27;4.90;;;33.10;92.10;;;;;;4159534;28;20050;-66
2022/05/24 11:23:31;;;;;;;11.43;4.90;;;33.00;92.20;;;;;;4142942;28;20053;-66
2022/05/24 11:25:56;;;;;;;9.00;4.75;;;32.90;92.20;;;;;;4159049;28;20414;-66
2022/05/24 11:28:01;;;;;;;12.98;5.75;;;32.90;92.30;;;;;;4157609;28;20047;-65
2022/05/24 11:30:26;;;;;;;11.85;5.75;;;32.90;92.30;;;;;;4157842;28;20041;-65
2022/05/24 11:32:38;;;;;;;10.93;5.18;;;32.80;92.20;;;;;;4159872;28;20046;-67
2022/05/24 11:35:03;;;;;;;9.77;4.95;;;32.80;92.20;;;;;;4159673;28;20140;-65
2022/05/24 11:37:33;;;;;;;12.53;4.93;;;32.70;92.40;;;;;;4143757;28;20132;-67
2022/05/24 11:39:39;;;;;;;8.65;5.10;;;32.70;92.50;;;;;;4147165;28;20288;-66
2022/05/24 11:41:46;;;;;;;14.98;11.80;;;32.70;92.50;;;;;;4124344;28;20057;-67
2022/05/24 11:44:05;;;;;;;20.00;11.05;;;32.60;92.70;;;;;;4135328;28;20385;-66
2022/05/24 11:46:34;;;;;;;33.75;27.48;;;32.60;92.90;;;;;;4143515;28;20043;-67
2022/05/24 11:48:49;;;;;;;15.25;11.13;;;32.50;93.00;;;;;;4131146;28;20070;-66
2022/05/24 11:50:55;;;;;;;10.18;7.07;;;32.40;93.30;;;;;;4141971;28;20108;-68
2022/05/24 11:53:36;;;;;;;17.73;6.75;;;32.30;93.40;;;;;;4144592;28;20137;-69
2022/05/24 11:55:55;;;;;;;10.23;5.97;;;32.30;93.40;;;;;;4145068;28;20046;-69
2022/05/24 11:58:20;;;;;;;13.55;7.03;;;32.30;93.30;;;;;;4144613;28;20056;-66
2022/05/24 12:00:31;;;;;;;14.77;5.47;;;32.30;93.30;;;;;;4147197;28;20125;-66
2022/05/24 12:07:59;;;;;;;10.05;4.90;;;32.20;93.10;;;;;;4147123;28;20104;-66
2022/05/24 12:10:27;;;;;;;10.65;3.90;;;32.20;93.20;;;;;;4128950;28;20042;-67